sensor_id;sensor_type;location;lat;lon;timestamp;P1;durP1;ratioP1;P2;durP2;ratioP2
37777;SDS011;23615;51.506;7.678;2023-04-02T00:02:24;1.20;;;1.00;;
37777;SDS011;23615;51.506;7.678;2023-04-02T00:07:40;0.87;;;0.87;;
37777;SDS011;23615;51.506;7.678;2023-04-02T00:15:36;0.90;;;0.90;;
37777;SDS011;23615;51.506;7.678;2023-04-02T00:18:03;1.00;;;1.00;;
37777;SDS011;23615;51.506;7.678;2023-04-02T00:20:29;0.98;;;0.90;;
37777;SDS011;23615;51.506;7.678;2023-04-02T00:23:00;0.90;;;0.90;;
37777;SDS011;23615;51.506;7.678;2023-04-02T00:25:27;1.20;;;1.20;;
37777;SDS011;23615;51.506;7.678;2023-04-02T00:27:55;1.10;;;1.00;;
37777;SDS011;23615;51.506;7.678;2023-04-02T00:30:20;0.80;;;0.80;;
37777;SDS011;23615;51.506;7.678;2023-04-02T00:32:46;1.30;;;1.20;;
37777;SDS011;23615;51.506;7.678;2023-04-02T00:35:12;1.10;;;1.10;;
37777;SDS011;23615;51.506;7.678;2023-04-02T00:37:46;1.00;;;1.00;;
37777;SDS011;23615;51.506;7.678;2023-04-02T00:40:15;1.40;;;1.30;;
37777;SDS011;23615;51.506;7.678;2023-04-02T00:42:49;1.20;;;1.10;;
37777;SDS011;23615;51.506;7.678;2023-04-02T00:45:18;1.23;;;1.15;;
37777;SDS011;23615;51.506;7.678;2023-04-02T00:47:48;1.00;;;1.00;;
37777;SDS011;23615;51.506;7.678;2023-04-02T00:52:39;1.10;;;1.00;;
37777;SDS011;23615;51.506;7.678;2023-04-02T00:55:11;1.02;;;1.02;;
37777;SDS011;23615;51.506;7.678;2023-04-02T00:57:41;0.98;;;0.98;;
37777;SDS011;23615;51.506;7.678;2023-04-02T01:02:43;1.30;;;1.20;;
37777;SDS011;23615;51.506;7.678;2023-04-02T01:05:40;1.40;;;1.30;;
37777;SDS011;23615;51.506;7.678;2023-04-02T01:13:41;1.20;;;1.20;;
37777;SDS011;23615;51.506;7.678;2023-04-02T01:21:59;1.55;;;1.45;;
37777;SDS011;23615;51.506;7.678;2023-04-02T01:24:38;1.48;;;1.38;;
37777;SDS011;23615;51.506;7.678;2023-04-02T01:27:04;1.47;;;1.37;;
37777;SDS011;23615;51.506;7.678;2023-04-02T01:29:37;1.42;;;1.33;;
37777;SDS011;23615;51.506;7.678;2023-04-02T01:32:10;1.42;;;1.33;;
37777;SDS011;23615;51.506;7.678;2023-04-02T01:34:37;1.63;;;1.50;;
37777;SDS011;23615;51.506;7.678;2023-04-02T01:42:37;1.88;;;1.27;;
37777;SDS011;23615;51.506;7.678;2023-04-02T01:45:13;1.27;;;1.10;;
37777;SDS011;23615;51.506;7.678;2023-04-02T01:47:41;1.15;;;1.10;;
37777;SDS011;23615;51.506;7.678;2023-04-02T01:52:55;1.23;;;1.20;;
37777;SDS011;23615;51.506;7.678;2023-04-02T01:55:28;1.50;;;1.40;;
37777;SDS011;23615;51.506;7.678;2023-04-02T01:58:02;1.48;;;1.20;;
37777;SDS011;23615;51.506;7.678;2023-04-02T02:00:28;1.23;;;1.13;;
37777;SDS011;23615;51.506;7.678;2023-04-02T02:02:57;1.40;;;1.30;;
37777;SDS011;23615;51.506;7.678;2023-04-02T02:05:24;1.52;;;1.42;;
37777;SDS011;23615;51.506;7.678;2023-04-02T02:07:51;1.48;;;1.38;;
37777;SDS011;23615;51.506;7.678;2023-04-02T02:10:25;1.33;;;1.20;;
37777;SDS011;23615;51.506;7.678;2023-04-02T02:12:53;1.50;;;1.40;;
37777;SDS011;23615;51.506;7.678;2023-04-02T02:15:23;1.75;;;1.35;;
37777;SDS011;23615;51.506;7.678;2023-04-02T02:17:48;1.60;;;1.50;;
37777;SDS011;23615;51.506;7.678;2023-04-02T02:20:14;1.33;;;1.27;;
37777;SDS011;23615;51.506;7.678;2023-04-02T02:22:47;1.23;;;1.23;;
37777;SDS011;23615;51.506;7.678;2023-04-02T02:25:22;1.60;;;1.50;;
37777;SDS011;23615;51.506;7.678;2023-04-02T02:27:55;1.50;;;1.40;;
37777;SDS011;23615;51.506;7.678;2023-04-02T02:30:26;1.75;;;1.65;;
37777;SDS011;23615;51.506;7.678;2023-04-02T02:38:31;1.37;;;1.27;;
37777;SDS011;23615;51.506;7.678;2023-04-02T02:41:23;1.13;;;1.13;;
37777;SDS011;23615;51.506;7.678;2023-04-02T02:46:39;1.50;;;1.40;;
37777;SDS011;23615;51.506;7.678;2023-04-02T02:49:10;1.30;;;1.20;;
37777;SDS011;23615;51.506;7.678;2023-04-02T02:51:45;1.55;;;1.27;;
37777;SDS011;23615;51.506;7.678;2023-04-02T02:54:14;1.20;;;1.10;;
37777;SDS011;23615;51.506;7.678;2023-04-02T02:56:42;1.40;;;1.30;;
37777;SDS011;23615;51.506;7.678;2023-04-02T02:59:12;1.40;;;1.30;;
37777;SDS011;23615;51.506;7.678;2023-04-02T03:01:40;1.10;;;1.10;;
37777;SDS011;23615;51.506;7.678;2023-04-02T03:04:07;1.10;;;1.10;;
37777;SDS011;23615;51.506;7.678;2023-04-02T03:06:32;1.73;;;1.63;;
37777;SDS011;23615;51.506;7.678;2023-04-02T03:14:44;1.83;;;1.67;;
37777;SDS011;23615;51.506;7.678;2023-04-02T03:17:25;1.80;;;1.70;;
37777;SDS011;23615;51.506;7.678;2023-04-02T03:22:45;1.13;;;1.10;;
37777;SDS011;23615;51.506;7.678;2023-04-02T03:27:48;1.52;;;1.42;;
37777;SDS011;23615;51.506;7.678;2023-04-02T03:30:26;3.03;;;1.70;;
37777;SDS011;23615;51.506;7.678;2023-04-02T03:32:56;1.40;;;1.30;;
37777;SDS011;23615;51.506;7.678;2023-04-02T03:35:32;1.73;;;1.50;;
37777;SDS011;23615;51.506;7.678;2023-04-02T03:38:06;1.92;;;1.58;;
37777;SDS011;23615;51.506;7.678;2023-04-02T03:40:41;1.60;;;1.30;;
37777;SDS011;23615;51.506;7.678;2023-04-02T03:43:24;1.63;;;1.52;;
37777;SDS011;23615;51.506;7.678;2023-04-02T03:45:56;2.00;;;1.50;;
37777;SDS011;23615;51.506;7.678;2023-04-02T03:48:30;1.60;;;1.50;;
37777;SDS011;23615;51.506;7.678;2023-04-02T03:51:04;1.98;;;1.75;;
37777;SDS011;23615;51.506;7.678;2023-04-02T03:53:35;1.73;;;1.63;;
37777;SDS011;23615;51.506;7.678;2023-04-02T03:56:01;2.10;;;1.85;;
37777;SDS011;23615;51.506;7.678;2023-04-02T04:01:01;3.20;;;2.03;;
37777;SDS011;23615;51.506;7.678;2023-04-02T04:03:31;2.58;;;2.30;;
37777;SDS011;23615;51.506;7.678;2023-04-02T04:06:06;2.20;;;2.00;;
37777;SDS011;23615;51.506;7.678;2023-04-02T04:08:36;3.00;;;2.80;;
37777;SDS011;23615;51.506;7.678;2023-04-02T04:11:09;2.60;;;2.40;;
37777;SDS011;23615;51.506;7.678;2023-04-02T04:13:42;3.35;;;3.05;;
37777;SDS011;23615;51.506;7.678;2023-04-02T04:16:17;3.10;;;2.80;;
37777;SDS011;23615;51.506;7.678;2023-04-02T04:18:52;3.60;;;3.30;;
37777;SDS011;23615;51.506;7.678;2023-04-02T04:21:27;3.72;;;3.42;;
37777;SDS011;23615;51.506;7.678;2023-04-02T04:24:32;4.50;;;3.22;;
37777;SDS011;23615;51.506;7.678;2023-04-02T04:29:45;4.30;;;3.40;;
37777;SDS011;23615;51.506;7.678;2023-04-02T04:32:26;4.50;;;3.17;;
37777;SDS011;23615;51.506;7.678;2023-04-02T04:35:14;4.65;;;3.60;;
37777;SDS011;23615;51.506;7.678;2023-04-02T04:38:46;4.03;;;2.88;;
37777;SDS011;23615;51.506;7.678;2023-04-02T04:40:58;5.43;;;3.50;;
37777;SDS011;23615;51.506;7.678;2023-04-02T04:46:02;4.97;;;3.30;;
37777;SDS011;23615;51.506;7.678;2023-04-02T04:48:34;3.53;;;3.22;;
37777;SDS011;23615;51.506;7.678;2023-04-02T04:51:07;4.97;;;3.45;;
37777;SDS011;23615;51.506;7.678;2023-04-02T04:53:44;3.80;;;3.30;;
37777;SDS011;23615;51.506;7.678;2023-04-02T04:56:11;4.38;;;3.30;;
37777;SDS011;23615;51.506;7.678;2023-04-02T05:01:11;4.63;;;3.55;;
37777;SDS011;23615;51.506;7.678;2023-04-02T05:09:52;4.05;;;3.50;;
37777;SDS011;23615;51.506;7.678;2023-04-02T05:12:04;5.82;;;3.70;;
37777;SDS011;23615;51.506;7.678;2023-04-02T05:14:47;4.43;;;3.37;;
37777;SDS011;23615;51.506;7.678;2023-04-02T05:19:54;5.25;;;3.97;;
37777;SDS011;23615;51.506;7.678;2023-04-02T05:22:35;4.65;;;3.50;;
37777;SDS011;23615;51.506;7.678;2023-04-02T05:25:15;5.53;;;4.00;;
37777;SDS011;23615;51.506;7.678;2023-04-02T05:27:54;5.10;;;3.37;;
37777;SDS011;23615;51.506;7.678;2023-04-02T05:32:53;5.90;;;3.63;;
37777;SDS011;23615;51.506;7.678;2023-04-02T05:35:24;6.40;;;3.95;;
37777;SDS011;23615;51.506;7.678;2023-04-02T05:37:56;4.85;;;3.28;;
37777;SDS011;23615;51.506;7.678;2023-04-02T05:40:26;5.57;;;3.35;;
37777;SDS011;23615;51.506;7.678;2023-04-02T05:42:58;3.25;;;2.90;;
37777;SDS011;23615;51.506;7.678;2023-04-02T05:45:30;4.03;;;3.00;;
37777;SDS011;23615;51.506;7.678;2023-04-02T05:48:00;4.10;;;3.05;;
37777;SDS011;23615;51.506;7.678;2023-04-02T05:50:35;5.53;;;3.50;;
37777;SDS011;23615;51.506;7.678;2023-04-02T05:53:09;5.50;;;4.05;;
37777;SDS011;23615;51.506;7.678;2023-04-02T05:55:52;4.10;;;3.22;;
37777;SDS011;23615;51.506;7.678;2023-04-02T05:58:25;5.38;;;3.72;;
37777;SDS011;23615;51.506;7.678;2023-04-02T06:00:59;3.33;;;2.87;;
37777;SDS011;23615;51.506;7.678;2023-04-02T06:03:41;3.63;;;3.10;;
37777;SDS011;23615;51.506;7.678;2023-04-02T06:06:16;4.50;;;3.45;;
37777;SDS011;23615;51.506;7.678;2023-04-02T06:08:59;4.20;;;2.95;;
37777;SDS011;23615;51.506;7.678;2023-04-02T06:11:35;5.13;;;3.63;;
37777;SDS011;23615;51.506;7.678;2023-04-02T06:14:15;4.90;;;3.47;;
37777;SDS011;23615;51.506;7.678;2023-04-02T06:16:42;4.28;;;3.15;;
37777;SDS011;23615;51.506;7.678;2023-04-02T06:19:32;4.10;;;3.17;;
37777;SDS011;23615;51.506;7.678;2023-04-02T06:22:07;4.27;;;3.03;;
37777;SDS011;23615;51.506;7.678;2023-04-02T06:24:40;4.63;;;3.15;;
37777;SDS011;23615;51.506;7.678;2023-04-02T06:27:09;4.78;;;3.47;;
37777;SDS011;23615;51.506;7.678;2023-04-02T06:29:42;5.00;;;3.00;;
37777;SDS011;23615;51.506;7.678;2023-04-02T06:32:10;5.78;;;3.20;;
37777;SDS011;23615;51.506;7.678;2023-04-02T06:34:40;4.82;;;2.47;;
37777;SDS011;23615;51.506;7.678;2023-04-02T06:39:54;4.10;;;2.55;;
37777;SDS011;23615;51.506;7.678;2023-04-02T06:42:25;3.58;;;2.22;;
37777;SDS011;23615;51.506;7.678;2023-04-02T06:44:54;3.53;;;2.40;;
37777;SDS011;23615;51.506;7.678;2023-04-02T06:47:27;3.43;;;2.60;;
37777;SDS011;23615;51.506;7.678;2023-04-02T06:50:06;3.05;;;1.95;;
37777;SDS011;23615;51.506;7.678;2023-04-02T06:52:44;3.27;;;2.70;;
37777;SDS011;23615;51.506;7.678;2023-04-02T06:57:55;4.25;;;2.70;;
37777;SDS011;23615;51.506;7.678;2023-04-02T07:00:36;4.80;;;2.17;;
37777;SDS011;23615;51.506;7.678;2023-04-02T07:03:22;3.60;;;2.05;;
37777;SDS011;23615;51.506;7.678;2023-04-02T07:05:51;3.85;;;2.40;;
37777;SDS011;23615;51.506;7.678;2023-04-02T07:08:16;2.58;;;2.10;;
37777;SDS011;23615;51.506;7.678;2023-04-02T07:10:41;4.00;;;1.92;;
37777;SDS011;23615;51.506;7.678;2023-04-02T07:13:12;2.77;;;1.73;;
37777;SDS011;23615;51.506;7.678;2023-04-02T07:15:40;2.40;;;1.80;;
37777;SDS011;23615;51.506;7.678;2023-04-02T07:18:07;3.37;;;1.83;;
37777;SDS011;23615;51.506;7.678;2023-04-02T07:20:45;3.30;;;1.60;;
37777;SDS011;23615;51.506;7.678;2023-04-02T07:23:10;1.73;;;1.30;;
37777;SDS011;23615;51.506;7.678;2023-04-02T07:25:35;2.50;;;1.50;;
37777;SDS011;23615;51.506;7.678;2023-04-02T07:28:01;3.67;;;1.57;;
37777;SDS011;23615;51.506;7.678;2023-04-02T07:30:26;2.87;;;1.90;;
37777;SDS011;23615;51.506;7.678;2023-04-02T07:32:51;2.07;;;1.50;;
37777;SDS011;23615;51.506;7.678;2023-04-02T07:35:16;2.27;;;1.73;;
37777;SDS011;23615;51.506;7.678;2023-04-02T07:37:42;2.07;;;1.50;;
37777;SDS011;23615;51.506;7.678;2023-04-02T07:40:14;4.73;;;1.90;;
37777;SDS011;23615;51.506;7.678;2023-04-02T07:42:42;2.60;;;1.60;;
37777;SDS011;23615;51.506;7.678;2023-04-02T07:45:07;1.83;;;1.50;;
37777;SDS011;23615;51.506;7.678;2023-04-02T07:47:33;2.35;;;1.30;;
37777;SDS011;23615;51.506;7.678;2023-04-02T07:49:58;2.03;;;1.60;;
37777;SDS011;23615;51.506;7.678;2023-04-02T07:52:23;1.77;;;1.00;;
37777;SDS011;23615;51.506;7.678;2023-04-02T07:54:49;3.03;;;1.60;;
37777;SDS011;23615;51.506;7.678;2023-04-02T07:57:14;1.90;;;1.27;;
37777;SDS011;23615;51.506;7.678;2023-04-02T07:59:39;4.90;;;1.67;;
37777;SDS011;23615;51.506;7.678;2023-04-02T08:02:04;2.97;;;1.37;;
37777;SDS011;23615;51.506;7.678;2023-04-02T08:04:30;2.47;;;1.80;;
37777;SDS011;23615;51.506;7.678;2023-04-02T08:06:55;2.30;;;1.50;;
37777;SDS011;23615;51.506;7.678;2023-04-02T08:09:21;3.67;;;1.40;;
37777;SDS011;23615;51.506;7.678;2023-04-02T08:11:46;3.50;;;1.40;;
37777;SDS011;23615;51.506;7.678;2023-04-02T08:14:11;1.60;;;1.27;;
37777;SDS011;23615;51.506;7.678;2023-04-02T08:16:47;2.73;;;1.27;;
37777;SDS011;23615;51.506;7.678;2023-04-02T08:19:14;2.63;;;1.33;;
37777;SDS011;23615;51.506;7.678;2023-04-02T08:21:40;3.42;;;1.30;;
37777;SDS011;23615;51.506;7.678;2023-04-02T08:24:05;2.95;;;1.30;;
37777;SDS011;23615;51.506;7.678;2023-04-02T08:26:31;2.40;;;1.57;;
37777;SDS011;23615;51.506;7.678;2023-04-02T08:28:56;2.40;;;1.73;;
37777;SDS011;23615;51.506;7.678;2023-04-02T08:31:22;3.50;;;1.90;;
37777;SDS011;23615;51.506;7.678;2023-04-02T08:33:47;2.63;;;1.65;;
37777;SDS011;23615;51.506;7.678;2023-04-02T08:36:16;3.50;;;1.60;;
37777;SDS011;23615;51.506;7.678;2023-04-02T08:38:42;3.08;;;1.73;;
37777;SDS011;23615;51.506;7.678;2023-04-02T08:41:09;2.23;;;1.20;;
37777;SDS011;23615;51.506;7.678;2023-04-02T08:43:51;3.22;;;0.90;;
37777;SDS011;23615;51.506;7.678;2023-04-02T08:46:26;2.92;;;1.20;;
37777;SDS011;23615;51.506;7.678;2023-04-02T08:48:58;2.17;;;0.85;;
37777;SDS011;23615;51.506;7.678;2023-04-02T08:51:29;2.03;;;1.13;;
37777;SDS011;23615;51.506;7.678;2023-04-02T08:54:02;2.10;;;1.10;;
37777;SDS011;23615;51.506;7.678;2023-04-02T08:56:39;1.67;;;1.13;;
37777;SDS011;23615;51.506;7.678;2023-04-02T08:59:17;2.50;;;1.05;;
37777;SDS011;23615;51.506;7.678;2023-04-02T09:01:56;2.10;;;1.05;;
37777;SDS011;23615;51.506;7.678;2023-04-02T09:04:29;2.05;;;1.05;;
37777;SDS011;23615;51.506;7.678;2023-04-02T09:06:57;2.47;;;1.33;;
37777;SDS011;23615;51.506;7.678;2023-04-02T09:09:24;2.83;;;1.23;;
37777;SDS011;23615;51.506;7.678;2023-04-02T09:11:55;1.90;;;1.13;;
37777;SDS011;23615;51.506;7.678;2023-04-02T09:14:41;2.75;;;0.98;;
37777;SDS011;23615;51.506;7.678;2023-04-02T09:17:29;3.97;;;1.35;;
37777;SDS011;23615;51.506;7.678;2023-04-02T09:19:55;1.70;;;1.13;;
37777;SDS011;23615;51.506;7.678;2023-04-02T09:22:28;2.25;;;1.30;;
37777;SDS011;23615;51.506;7.678;2023-04-02T09:24:57;2.22;;;1.30;;
37777;SDS011;23615;51.506;7.678;2023-04-02T09:27:26;3.03;;;1.25;;
37777;SDS011;23615;51.506;7.678;2023-04-02T09:29:57;2.30;;;2.10;;
37777;SDS011;23615;51.506;7.678;2023-04-02T09:32:37;3.20;;;1.38;;
37777;SDS011;23615;51.506;7.678;2023-04-02T09:35:14;2.25;;;1.20;;
37777;SDS011;23615;51.506;7.678;2023-04-02T09:37:42;3.40;;;1.38;;
37777;SDS011;23615;51.506;7.678;2023-04-02T09:40:14;2.55;;;1.35;;
37777;SDS011;23615;51.506;7.678;2023-04-02T09:42:48;2.25;;;1.60;;
37777;SDS011;23615;51.506;7.678;2023-04-02T09:45:19;2.83;;;1.40;;
37777;SDS011;23615;51.506;7.678;2023-04-02T09:47:46;1.57;;;1.13;;
37777;SDS011;23615;51.506;7.678;2023-04-02T09:50:14;1.30;;;0.98;;
37777;SDS011;23615;51.506;7.678;2023-04-02T09:52:49;1.05;;;0.95;;
37777;SDS011;23615;51.506;7.678;2023-04-02T09:55:27;3.08;;;0.82;;
37777;SDS011;23615;51.506;7.678;2023-04-02T09:58:11;1.67;;;0.90;;
37777;SDS011;23615;51.506;7.678;2023-04-02T10:00:39;1.65;;;0.80;;
37777;SDS011;23615;51.506;7.678;2023-04-02T10:03:18;1.80;;;1.00;;
37777;SDS011;23615;51.506;7.678;2023-04-02T10:05:47;2.88;;;1.00;;
37777;SDS011;23615;51.506;7.678;2023-04-02T10:08:15;1.17;;;0.80;;
37777;SDS011;23615;51.506;7.678;2023-04-02T10:10:49;2.35;;;0.85;;
37777;SDS011;23615;51.506;7.678;2023-04-02T10:19:18;2.58;;;0.80;;
37777;SDS011;23615;51.506;7.678;2023-04-02T10:21:46;2.38;;;0.73;;
37777;SDS011;23615;51.506;7.678;2023-04-02T10:24:13;1.75;;;0.60;;
37777;SDS011;23615;51.506;7.678;2023-04-02T10:34:42;1.15;;;0.60;;
37777;SDS011;23615;51.506;7.678;2023-04-02T10:43:20;1.88;;;0.60;;
37777;SDS011;23615;51.506;7.678;2023-04-02T10:51:49;1.97;;;0.63;;
37777;SDS011;23615;51.506;7.678;2023-04-02T10:54:32;2.00;;;0.82;;
37777;SDS011;23615;51.506;7.678;2023-04-02T10:57:05;1.88;;;0.70;;
37777;SDS011;23615;51.506;7.678;2023-04-02T10:59:36;1.73;;;0.70;;
37777;SDS011;23615;51.506;7.678;2023-04-02T11:02:22;1.60;;;0.70;;
37777;SDS011;23615;51.506;7.678;2023-04-02T11:04:52;1.53;;;0.40;;
37777;SDS011;23615;51.506;7.678;2023-04-02T11:07:21;1.40;;;0.47;;
37777;SDS011;23615;51.506;7.678;2023-04-02T11:09:52;1.10;;;0.63;;
37777;SDS011;23615;51.506;7.678;2023-04-02T11:12:26;2.55;;;0.60;;
37777;SDS011;23615;51.506;7.678;2023-04-02T11:15:16;2.58;;;0.80;;
37777;SDS011;23615;51.506;7.678;2023-04-02T11:17:43;1.37;;;0.50;;
37777;SDS011;23615;51.506;7.678;2023-04-02T11:23:19;1.20;;;0.60;;
37777;SDS011;23615;51.506;7.678;2023-04-02T11:25:45;0.50;;;0.40;;
37777;SDS011;23615;51.506;7.678;2023-04-02T11:28:32;2.15;;;0.85;;
37777;SDS011;23615;51.506;7.678;2023-04-02T11:30:57;0.95;;;0.60;;
37777;SDS011;23615;51.506;7.678;2023-04-02T11:35:54;1.60;;;0.90;;
37777;SDS011;23615;51.506;7.678;2023-04-02T11:40:49;1.57;;;0.90;;
37777;SDS011;23615;51.506;7.678;2023-04-02T11:48:27;1.70;;;0.57;;
37777;SDS011;23615;51.506;7.678;2023-04-02T11:50:58;1.15;;;0.60;;
37777;SDS011;23615;51.506;7.678;2023-04-02T11:53:30;1.33;;;0.67;;
37777;SDS011;23615;51.506;7.678;2023-04-02T11:58:37;1.02;;;0.50;;
37777;SDS011;23615;51.506;7.678;2023-04-02T12:06:43;1.53;;;0.60;;
37777;SDS011;23615;51.506;7.678;2023-04-02T12:11:49;1.20;;;0.32;;
37777;SDS011;23615;51.506;7.678;2023-04-02T12:17:01;1.83;;;0.60;;
37777;SDS011;23615;51.506;7.678;2023-04-02T12:19:28;1.02;;;0.50;;
37777;SDS011;23615;51.506;7.678;2023-04-02T12:21:55;1.20;;;0.73;;
37777;SDS011;23615;51.506;7.678;2023-04-02T12:24:23;1.13;;;0.60;;
37777;SDS011;23615;51.506;7.678;2023-04-02T12:30:18;0.70;;;0.40;;
37777;SDS011;23615;51.506;7.678;2023-04-02T12:32:43;1.00;;;0.50;;
37777;SDS011;23615;51.506;7.678;2023-04-02T12:35:25;2.80;;;0.35;;
37777;SDS011;23615;51.506;7.678;2023-04-02T12:37:54;1.20;;;0.40;;
37777;SDS011;23615;51.506;7.678;2023-04-02T12:40:22;1.50;;;0.50;;
37777;SDS011;23615;51.506;7.678;2023-04-02T12:42:48;1.60;;;0.50;;
37777;SDS011;23615;51.506;7.678;2023-04-02T12:45:20;1.03;;;0.30;;
37777;SDS011;23615;51.506;7.678;2023-04-02T12:47:48;0.75;;;0.40;;
37777;SDS011;23615;51.506;7.678;2023-04-02T12:50:14;1.10;;;0.40;;
37777;SDS011;23615;51.506;7.678;2023-04-02T12:52:50;2.88;;;0.45;;
37777;SDS011;23615;51.506;7.678;2023-04-02T12:55:19;0.85;;;0.40;;
37777;SDS011;23615;51.506;7.678;2023-04-02T12:57:47;0.80;;;0.50;;
37777;SDS011;23615;51.506;7.678;2023-04-02T13:02:49;1.05;;;0.45;;
37777;SDS011;23615;51.506;7.678;2023-04-02T13:05:39;1.20;;;0.40;;
37777;SDS011;23615;51.506;7.678;2023-04-02T13:08:18;1.52;;;0.32;;
37777;SDS011;23615;51.506;7.678;2023-04-02T13:10:51;1.10;;;0.43;;
37777;SDS011;23615;51.506;7.678;2023-04-02T13:13:20;1.30;;;0.50;;
37777;SDS011;23615;51.506;7.678;2023-04-02T13:16:02;2.38;;;0.65;;
37777;SDS011;23615;51.506;7.678;2023-04-02T13:18:32;1.30;;;0.60;;
37777;SDS011;23615;51.506;7.678;2023-04-02T13:21:05;1.00;;;0.60;;
37777;SDS011;23615;51.506;7.678;2023-04-02T13:23:47;3.53;;;0.47;;
37777;SDS011;23615;51.506;7.678;2023-04-02T13:26:19;1.37;;;0.40;;
37777;SDS011;23615;51.506;7.678;2023-04-02T13:28:59;1.20;;;0.53;;
37777;SDS011;23615;51.506;7.678;2023-04-02T13:31:27;1.70;;;0.60;;
37777;SDS011;23615;51.506;7.678;2023-04-02T13:33:54;1.00;;;0.50;;
37777;SDS011;23615;51.506;7.678;2023-04-02T13:36:19;1.40;;;0.70;;
37777;SDS011;23615;51.506;7.678;2023-04-02T13:38:45;1.60;;;0.65;;
37777;SDS011;23615;51.506;7.678;2023-04-02T13:41:33;1.03;;;0.70;;
37777;SDS011;23615;51.506;7.678;2023-04-02T13:43:59;1.67;;;0.80;;
37777;SDS011;23615;51.506;7.678;2023-04-02T13:46:30;1.20;;;0.75;;
37777;SDS011;23615;51.506;7.678;2023-04-02T13:48:57;1.88;;;0.60;;
37777;SDS011;23615;51.506;7.678;2023-04-02T13:51:37;1.60;;;0.70;;
37777;SDS011;23615;51.506;7.678;2023-04-02T13:54:06;2.30;;;0.80;;
37777;SDS011;23615;51.506;7.678;2023-04-02T13:56:38;2.00;;;0.70;;
37777;SDS011;23615;51.506;7.678;2023-04-02T13:59:04;0.80;;;0.68;;
37777;SDS011;23615;51.506;7.678;2023-04-02T14:01:29;1.30;;;0.60;;
37777;SDS011;23615;51.506;7.678;2023-04-02T14:03:55;1.77;;;0.40;;
37777;SDS011;23615;51.506;7.678;2023-04-02T14:09:21;1.20;;;0.60;;
37777;SDS011;23615;51.506;7.678;2023-04-02T14:19:50;0.70;;;0.57;;
37777;SDS011;23615;51.506;7.678;2023-04-02T14:24:59;2.00;;;0.80;;
37777;SDS011;23615;51.506;7.678;2023-04-02T14:30:16;1.52;;;0.47;;
37777;SDS011;23615;51.506;7.678;2023-04-02T14:32:59;1.10;;;0.60;;
37777;SDS011;23615;51.506;7.678;2023-04-02T14:35:36;1.57;;;0.40;;
37777;SDS011;23615;51.506;7.678;2023-04-02T14:38:15;0.93;;;0.50;;
37777;SDS011;23615;51.506;7.678;2023-04-02T14:40:45;1.52;;;0.50;;
37777;SDS011;23615;51.506;7.678;2023-04-02T14:43:18;1.20;;;0.50;;
37777;SDS011;23615;51.506;7.678;2023-04-02T14:56:18;0.90;;;0.43;;
37777;SDS011;23615;51.506;7.678;2023-04-02T14:58:47;2.20;;;0.60;;
37777;SDS011;23615;51.506;7.678;2023-04-02T15:01:25;0.95;;;0.80;;
37777;SDS011;23615;51.506;7.678;2023-04-02T15:03:56;1.17;;;0.50;;
37777;SDS011;23615;51.506;7.678;2023-04-02T15:06:30;2.60;;;0.73;;
37777;SDS011;23615;51.506;7.678;2023-04-02T15:09:04;1.33;;;0.50;;
37777;SDS011;23615;51.506;7.678;2023-04-02T15:11:36;1.75;;;0.38;;
37777;SDS011;23615;51.506;7.678;2023-04-02T15:14:16;1.27;;;0.57;;
37777;SDS011;23615;51.506;7.678;2023-04-02T15:16:45;1.13;;;0.38;;
37777;SDS011;23615;51.506;7.678;2023-04-02T15:19:12;0.63;;;0.30;;
37777;SDS011;23615;51.506;7.678;2023-04-02T15:24:39;0.90;;;0.30;;
37777;SDS011;23615;51.506;7.678;2023-04-02T15:32:37;1.80;;;0.63;;
37777;SDS011;23615;51.506;7.678;2023-04-02T15:43:27;0.63;;;0.38;;
37777;SDS011;23615;51.506;7.678;2023-04-02T15:46:04;2.03;;;0.60;;
37777;SDS011;23615;51.506;7.678;2023-04-02T15:48:58;1.80;;;0.60;;
37777;SDS011;23615;51.506;7.678;2023-04-02T15:57:53;1.30;;;0.50;;
37777;SDS011;23615;51.506;7.678;2023-04-02T16:00:25;1.17;;;0.40;;
37777;SDS011;23615;51.506;7.678;2023-04-02T16:03:05;1.50;;;0.43;;
37777;SDS011;23615;51.506;7.678;2023-04-02T16:05:53;0.90;;;0.60;;
37777;SDS011;23615;51.506;7.678;2023-04-02T16:11:28;0.47;;;0.47;;
37777;SDS011;23615;51.506;7.678;2023-04-02T16:14:00;0.40;;;0.40;;
37777;SDS011;23615;51.506;7.678;2023-04-02T16:16:35;1.15;;;0.50;;
37777;SDS011;23615;51.506;7.678;2023-04-02T16:22:10;1.07;;;0.50;;
37777;SDS011;23615;51.506;7.678;2023-04-02T16:24:42;1.15;;;0.50;;
37777;SDS011;23615;51.506;7.678;2023-04-02T16:27:19;2.03;;;0.50;;
37777;SDS011;23615;51.506;7.678;2023-04-02T16:30:07;0.90;;;0.40;;
37777;SDS011;23615;51.506;7.678;2023-04-02T16:41:21;0.67;;;0.40;;
37777;SDS011;23615;51.506;7.678;2023-04-02T16:47:51;1.03;;;0.50;;
37777;SDS011;23615;51.506;7.678;2023-04-02T16:52:57;1.33;;;0.50;;
37777;SDS011;23615;51.506;7.678;2023-04-02T16:55:47;1.33;;;0.30;;
37777;SDS011;23615;51.506;7.678;2023-04-02T16:58:32;0.98;;;0.55;;
37777;SDS011;23615;51.506;7.678;2023-04-02T17:01:33;2.42;;;0.55;;
37777;SDS011;23615;51.506;7.678;2023-04-02T17:06:42;1.05;;;0.40;;
37777;SDS011;23615;51.506;7.678;2023-04-02T17:09:17;1.77;;;0.57;;
37777;SDS011;23615;51.506;7.678;2023-04-02T17:11:49;1.33;;;0.40;;
37777;SDS011;23615;51.506;7.678;2023-04-02T17:17:23;0.88;;;0.40;;
37777;SDS011;23615;51.506;7.678;2023-04-02T17:19:50;2.10;;;1.33;;
37777;SDS011;23615;51.506;7.678;2023-04-02T17:22:22;1.50;;;0.60;;
37777;SDS011;23615;51.506;7.678;2023-04-02T17:24:49;0.80;;;0.40;;
37777;SDS011;23615;51.506;7.678;2023-04-02T17:27:17;1.55;;;0.30;;
37777;SDS011;23615;51.506;7.678;2023-04-02T17:29:46;0.80;;;0.50;;
37777;SDS011;23615;51.506;7.678;2023-04-02T17:32:35;1.40;;;0.40;;
37777;SDS011;23615;51.506;7.678;2023-04-02T17:35:17;1.15;;;0.60;;
37777;SDS011;23615;51.506;7.678;2023-04-02T17:37:54;1.10;;;0.28;;
37777;SDS011;23615;51.506;7.678;2023-04-02T17:40:29;0.60;;;0.30;;
37777;SDS011;23615;51.506;7.678;2023-04-02T17:45:37;1.13;;;0.35;;
37777;SDS011;23615;51.506;7.678;2023-04-02T17:50:59;2.35;;;0.80;;
37777;SDS011;23615;51.506;7.678;2023-04-02T17:53:54;0.70;;;0.50;;
37777;SDS011;23615;51.506;7.678;2023-04-02T17:59:41;0.50;;;0.30;;
37777;SDS011;23615;51.506;7.678;2023-04-02T18:02:33;0.20;;;0.20;;
37777;SDS011;23615;51.506;7.678;2023-04-02T18:13:35;0.30;;;0.30;;
37777;SDS011;23615;51.506;7.678;2023-04-02T18:16:17;1.80;;;0.30;;
37777;SDS011;23615;51.506;7.678;2023-04-02T18:24:44;1.70;;;0.50;;
37777;SDS011;23615;51.506;7.678;2023-04-02T18:35:16;0.77;;;0.30;;
37777;SDS011;23615;51.506;7.678;2023-04-02T18:40:37;1.10;;;0.40;;
37777;SDS011;23615;51.506;7.678;2023-04-02T18:46:18;0.85;;;0.40;;
37777;SDS011;23615;51.506;7.678;2023-04-02T18:49:42;0.22;;;0.22;;
37777;SDS011;23615;51.506;7.678;2023-04-02T18:52:02;0.65;;;0.40;;
37777;SDS011;23615;51.506;7.678;2023-04-02T18:54:39;0.50;;;0.43;;
37777;SDS011;23615;51.506;7.678;2023-04-02T18:57:09;0.77;;;0.40;;
37777;SDS011;23615;51.506;7.678;2023-04-02T19:10:44;0.60;;;0.38;;
37777;SDS011;23615;51.506;7.678;2023-04-02T19:13:15;1.10;;;0.60;;
37777;SDS011;23615;51.506;7.678;2023-04-02T19:21:06;0.70;;;0.50;;
37777;SDS011;23615;51.506;7.678;2023-04-02T19:26:40;0.88;;;0.50;;
37777;SDS011;23615;51.506;7.678;2023-04-02T19:29:23;0.50;;;0.40;;
37777;SDS011;23615;51.506;7.678;2023-04-02T19:34:39;0.47;;;0.40;;
37777;SDS011;23615;51.506;7.678;2023-04-02T19:37:47;0.52;;;0.40;;
37777;SDS011;23615;51.506;7.678;2023-04-02T19:43:09;0.30;;;0.30;;
37777;SDS011;23615;51.506;7.678;2023-04-02T19:45:36;0.60;;;0.40;;
37777;SDS011;23615;51.506;7.678;2023-04-02T19:48:08;1.75;;;0.40;;
37777;SDS011;23615;51.506;7.678;2023-04-02T19:50:43;0.90;;;0.37;;
37777;SDS011;23615;51.506;7.678;2023-04-02T19:53:10;0.45;;;0.45;;
37777;SDS011;23615;51.506;7.678;2023-04-02T19:55:36;0.38;;;0.30;;
37777;SDS011;23615;51.506;7.678;2023-04-02T19:58:01;1.10;;;0.40;;